Central Sierra Snow Lab Weather observations

Data are for 10 minute period ending at time listed.
 Day   Time    Incoming  Reflected   Ave.   Ave.    Ave.    Vector  Max.    Ave.    Total    Snow   
  of    of      Solar     Solar      Air    Rel.    Wind    Wind    Wind   Baro.   Precip.   Depth  
Year   Day     Radiation Radiation   Temp.  Humid.  Speed   Dir.    Gust   Press.                   
2021   (PST)    Kw/m2     Kw/m2       F       %      mph     deg.    mph     mb.     in.      in.   
----------------------------------------------------------------------------------------------------
 267    0:30    0.000     999.000     55.2     29     2.1      55     6.2   795.90   10.29   164.70  
 267    0:40    0.000     999.000     55.3     29     2.0      24     9.0   795.90   10.29   164.70  
 267    0:50    0.000     999.000     55.1     29     1.0     299     2.9   796.00   10.29   164.70  
 267    1:00    0.000     999.000     55.0     29     1.5     129     6.6   796.00   10.30   164.70  
 267    1:10    0.000     999.000     55.0     29     1.3      78     5.3   796.00   10.30   164.70  
 267    1:20    0.000     999.000     54.7     29     1.0      71     3.5   796.00   10.29   164.80  
 267    1:30    0.000     999.000     54.6     29     0.8     334     3.0   796.00   10.30   164.80  
 267    1:40    0.000     999.000     54.2     30     0.9     359     3.9   796.00   10.30   164.80  
 267    1:50    0.000     999.000     53.8     30     2.0      30     5.0   796.00   10.30   164.80  
 267    2:00    0.000     999.000     53.9     30     2.0      38     5.5   796.00   10.30   164.80  
 267    2:10    0.000     999.000     54.2     29     2.9      26     6.6   796.00   10.30   164.70  
 267    2:20    0.000     999.000     54.0     30     2.4      43     5.9   796.00   10.29   164.70  
 267    2:30    0.000     999.000     53.4     30     2.7      39     6.2   796.00   10.30   164.80  
 267    2:40    0.000     999.000     53.0     31     2.2      49     4.6   796.00   10.29   164.80  
 267    2:50    0.000     999.000     52.9     31     2.4      45     5.1   796.00   10.30   164.80  
 267    3:00    0.000     999.000     53.1     31     3.1      26     5.9   795.90   10.30   164.80  
 267    3:10    0.000     999.000     53.3     31     3.9      22     6.9   795.90   10.30   164.80  
 267    3:20    0.000     999.000     53.1     32     4.0      30     6.9   795.80   10.30   164.80  
 267    3:30    0.000     999.000     53.5     31     3.5      29     8.5   795.80   10.30   164.80  
 267    3:40    0.000     999.000     53.7     32     3.6      28     9.4   795.80   10.30   164.80  
 267    3:50    0.000     999.000     53.9     32     4.1      20     8.6   795.80   10.30   164.70  
 267    4:00    0.000     999.000     53.9     32     4.2      26     9.1   795.90   10.30   164.80  
 267    4:10    0.000     999.000     53.5     33     3.4      38     7.7   795.90   10.30   164.80  
 267    4:20    0.000     999.000     53.2     34     2.6      33     5.4   795.90   10.30   164.80  
 267    4:30    0.000     999.000     52.5     35     3.2      34     7.9   795.80   10.30   164.80  
 267    4:40    0.000     999.000     52.2     35     2.7      36     5.5   795.80   10.30   164.80  
 267    4:50    0.000     999.000     51.8     36     2.0      38     5.4   795.90   10.30   164.80  
 267    5:00    0.000     999.000     51.2     37     2.2      56     4.3   795.90   10.29   164.80  
 267    5:10    0.000     999.000     51.1     38     2.5      49     5.4   795.90   10.30   164.80  
 267    5:20    0.000     999.000     50.8     38     2.4      50     5.0   795.90   10.30   164.80  
 267    5:30    0.000     999.000     50.8     38     1.7      58     4.6   796.00   10.30   164.80  
 267    5:40    0.000     999.000     50.2     39     2.1      47     3.7   796.00   10.30   164.80  
 267    5:50    0.002     999.000     49.9     40     2.2      42     4.0   796.00   10.30   164.80  
 267    6:00    0.004     999.000     49.8     40     2.5      34     4.6   796.00   10.30   164.80  
 267    6:10    0.007     999.000     49.8     40     1.9      36     3.7   796.00   10.31   164.80  
 267    6:20    0.010     999.000     49.3     40     1.5      70     3.3   796.20   10.31   164.80  
 267    6:30    0.013     999.000     49.0     41     2.2      48     5.1   796.20   10.30   164.80  
 267    6:40    0.014     999.000     49.7     40     2.1      54     4.7   796.20   10.30   164.80  
 267    6:50    0.014     999.000     49.7     41     1.7      60     3.3   796.20   10.30   164.80  
 267    7:00    0.015     999.000     50.0     41     1.9      44     4.1   796.20   10.30   164.80  
 267    7:10    0.017     999.000     50.8     39     1.7      70     4.0   796.10   10.30   164.80  
 267    7:20    0.031     999.000     51.4     38     1.3      72     3.4   796.10   10.30   164.80  
 267    7:30    0.043     999.000     52.9     36     1.3      77     2.7   796.10   10.30   164.80  
 267    7:40    0.086     999.000     54.1     34     1.9      48     4.9   796.10   10.30   164.80  
 267    7:50    0.112     999.000     55.9     32     1.3      64     4.6   796.10   10.31   164.70  
 267    8:00    0.115     999.000     57.5     30     1.7      42     4.0   796.10   10.30   164.60  
 267    8:10    0.059     999.000     59.1     28     1.6      37     4.3   796.20   10.30   164.60  
 267    8:20    0.228     999.000     60.2     28     1.7      34     3.8   796.20   10.30   164.60  
 267    8:30    0.413     999.000     61.2     26     1.9      24     6.0   796.20   10.30   164.60  
 267    8:40    0.465     999.000     62.4     25     2.2      18     7.8   796.20   10.29   164.40  
 267    8:50    0.493     999.000     63.3     23     2.2      11     6.0   796.30   10.30   93.70  
 267    9:00    0.519     999.000     64.3     23     1.7      16     5.0   796.30   10.29   -4.10  
 267    9:10    0.544     999.000     65.4     22     1.6      15     4.1   796.20   10.29   -4.40  
 267    9:20    0.569     999.000     66.7     20     2.1      11     5.7   796.20   10.29   -4.30  
 267    9:30    0.591     999.000     67.4     18     1.8       5     4.5   796.10   10.29   -4.00  
 267    9:40    0.614     999.000     68.9     18     1.2      26     3.2   796.00   10.29   -4.30  
 267    9:50    0.635     999.000     69.7     16     1.6      34     3.1   796.00   10.29   -4.40  
 267   10:00    0.654     999.000     70.1     14     1.9     154     6.7   795.90   10.29   -4.60  
 267   10:10    0.673     999.000     71.0     13     1.1     144     3.2   795.80   10.29   -4.70  
 267   10:20    0.689     999.000     71.3     13     2.3     108     4.9   795.80   10.29   -4.80  
 267   10:30    0.704     999.000     72.6     13     2.2     208     5.7   795.70   10.29   -4.60  
 267   10:40    0.719     999.000     73.5     11     2.0     229     4.8   795.60   10.29   -4.70  
 267   10:50    0.731     999.000     73.3     10     3.0     241     7.2   795.50   10.29   -4.40  
 267   11:00    0.741     999.000     73.8     10     3.0     169     6.6   795.50   10.28   -4.40  
 267   11:10    0.749     999.000     74.0     11     3.0     214    10.5   795.40   10.29   -4.40  
 267   11:20    0.756     999.000     74.1     11     3.1     255     6.7   795.40   10.28   -4.40  
 267   11:30    0.767     999.000     75.4     11     2.6     188     7.7   795.30   10.29   -4.20  
 267   11:40    0.770     999.000     74.9     10     4.4     271    12.0   795.30   10.29   -4.30  
 267   11:50    0.769     999.000     75.6     10     2.6     244     5.6   795.20   10.28   -4.30  
 267   12:00    0.770     999.000     76.6     10     2.7     186     5.8   795.20   10.28   -4.30  
 267   12:10    0.769     999.000     76.2     10     2.8     196     6.3   795.20   10.28   -4.20  
 267   12:20    0.825     999.000     76.9     10     3.3     201     8.4   795.10   10.28   -4.30  
 267   12:30    0.764     999.000     77.0     10     2.5     205     7.8   795.00   10.28   -4.30  
 267   12:40    0.759     999.000     77.0     10     2.7     220     7.3   794.90   10.28   -4.40  
 267   12:50    0.751     999.000     77.5     10     2.6     191     6.5   794.90   10.28   -4.40  
 267   13:00    0.744     999.000     77.3     10     3.3     165     6.7   794.70   10.28   -4.30  
 267   13:10    0.756     999.000     76.8     10     2.7     131     6.4   794.60   10.28   -4.50  
 267   13:20    0.728     999.000     77.1     10     3.7     195     7.4   794.50   10.28   -4.00  
 267   13:30    0.709     999.000     77.4      9     2.9     246     6.7   794.40   10.28   -4.30  
 267   13:40    0.691     999.000     77.6     10     3.6     203     9.0   794.40   10.28   -4.20  
 267   13:50    0.671     999.000     77.8     10     3.3     238     6.7   794.30   10.28   -4.10  
 267   14:00    0.651     999.000     76.7     10     4.1     258     9.3   794.20   10.28   -3.90  
 267   14:10    0.634     999.000     77.0     10     3.2     263     8.5   794.20   10.28   -4.00  
 267   14:20    0.615     999.000     76.9     11     3.5     256     8.2   794.20   10.28   -3.80  
 267   14:30    0.591     999.000     77.0     11     3.8     262     8.9   794.20   10.28   -3.70  
 267   14:40    0.564     999.000     76.7     12     4.1     278     9.4   794.20   10.28   -3.70  
 267   14:50    0.538     999.000     75.9     12     4.0     245     7.7   794.20   10.29   -3.70  
 267   15:00    0.513     999.000     76.0     12     4.5     278    12.2   794.20   10.28   -3.60  
 267   15:10    0.485     999.000     75.8     13     3.4     293     6.6   794.10   10.28   -3.50  
 267   15:20    0.456     999.000     76.1     13     3.3     260    10.3   794.10   10.28   -3.60  
 267   15:30    0.426     999.000     75.9     13     3.4     251     8.3   794.10   10.28   -3.60  
 267   15:40    0.398     999.000     76.0     13     2.6     230     9.1   794.10   10.28   -3.60  
 267   15:50    0.366     999.000     75.3     14     3.8     238    11.2   794.20   10.28   -3.60  
 267   16:00    0.335     999.000     74.6     14     3.0     238     7.5   794.20   10.28   -3.60  
 267   16:10    0.300     999.000     74.4     14     3.0     226     9.6   794.30   10.28   -3.60  
 267   16:20    0.163     999.000     73.0     15     2.9     211    10.0   794.30   10.28   -3.50  
 267   16:30    0.061     999.000     72.5     16     2.2     222     6.7   794.30   10.28   -3.50  
 267   16:40    0.076     999.000     72.1     17     2.3     217     5.7   794.40   10.28   -3.50  
 267   16:50    0.051     999.000     71.6     18     2.7     219     7.6   794.40   10.28   -3.50  
 267   17:00    0.038     999.000     71.2     19     2.1     239     6.8   794.50   10.28   -3.50  
 267   17:10    0.032     999.000     70.4     20     2.0     220     6.0   794.50   10.28   -3.40  
 267   17:20    0.022     999.000     69.1     22     2.8     224     7.9   794.60   10.28   -3.20  
 267   17:30    0.018     999.000     68.3     23     2.5     241     8.5   794.70   10.28   -3.20  
 267   17:40    0.013     999.000     67.5     24     2.5     226     5.9   794.70   10.28   39.20  
 267   17:50    0.008     999.000     66.7     25     2.4     208     4.7   794.80   10.28   164.20  
 267   18:00    0.003     999.000     65.9     26     1.9     214     4.1   794.80   10.29   164.30  
 267   18:10    0.001     999.000     65.1     27     1.2     153     3.9   794.90   10.29   164.40  
 267   18:20    0.000     999.000     64.0     28     0.7     129     1.7   795.00   10.29   164.50  
 267   18:30    0.000     999.000     63.1     29     0.7     139     1.4   795.00   10.29   164.50  
 267   18:40    0.000     999.000     61.8     30     0.8      40     1.9   795.00   10.29   164.60  
 267   18:50    0.000     999.000     60.5     31     1.5      29     2.4   795.10   10.29   164.60  
 267   19:00    0.000     999.000     59.6     32     2.1      28     3.2   795.10   10.29   164.60  
 267   19:10    0.000     999.000     58.7     33     1.8      32     2.5   795.20   10.28   164.60  
 267   19:20    0.000     999.000     57.9     34     2.4      26     3.2   795.30   10.29   164.60  
 267   19:30    0.000     999.000     57.3     35     2.1      30     3.4   795.40   10.29   164.60  
 267   19:40    0.000     999.000     56.7     36     2.1      28     2.7   795.50   10.29   164.60  
 267   19:50    0.000     999.000     56.0     37     2.1      28     3.0   795.50   10.30   164.60  
 267   20:00    0.000     999.000     55.5     38     2.2      31     3.0   795.60   10.29   164.70  
 267   20:10    0.000     999.000     55.0     38     2.1      29     3.0   795.60   10.30   164.60  
 267   20:20    0.000     999.000     54.6     39     2.5      29     3.3   795.70   10.29   164.70  
 267   20:30    0.000     999.000     54.2     40     2.1      27     3.2   795.60   10.29   164.70  
 267   20:40    0.000     999.000     53.8     41     2.5      30     3.6   795.70   10.30   164.70  
 267   20:50    0.000     999.000     53.5     41     2.7      30     3.7   795.70   10.29   164.70  
 267   21:00    0.000     999.000     53.2     42     3.1      29     4.0   795.70   10.29   164.80  
 267   21:10    0.000     999.000     52.8     42     3.2      29     3.9   795.70   10.29   164.70  
 267   21:20    0.000     999.000     52.5     43     3.3      29     4.2   795.70   10.29   164.80  
 267   21:30    0.000     999.000     52.2     43     3.6      28     4.3   795.70   10.29   164.80  
 267   21:40    0.000     999.000     52.0     44     3.7      26     4.2   795.80   10.30   164.80  
 267   21:50    0.000     999.000     51.8     44     3.2      26     4.1   795.80   10.30   164.80  
 267   22:00    0.000     999.000     51.5     45     3.4      25     4.2   795.80   10.29   164.70  
 267   22:10    0.000     999.000     51.2     46     3.4      27     4.3   795.80   10.29   164.80  
 267   22:20    0.000     999.000     51.0     46     3.4      26     4.3   795.80   10.29   164.80  
 267   22:30    0.000     999.000     50.7     46     3.4      25     4.2   795.90   10.30   164.80  
 267   22:40    0.000     999.000     50.5     47     3.8      26     4.3   795.90   10.29   164.80  
 267   22:50    0.000     999.000     50.2     48     3.8      26     4.2   795.90   10.29   164.80  
 267   23:00    0.000     999.000     50.1     48     3.1      22     4.1   795.90   10.30   164.80  
 267   23:10    0.000     999.000     50.0     48     3.4      26     3.8   795.90   10.30   164.80  
 267   23:20    0.000     999.000     49.8     48     3.6      25     4.3   796.00   10.30   164.80  
 267   23:30    0.000     999.000     49.7     49     3.6      27     4.3   796.00   10.30   164.80  
 267   23:40    0.000     999.000     49.6     49     3.6      24     4.3   795.90   10.30   164.80  
 267   23:50    0.000     999.000     49.5     50     3.8      27     4.3   795.90   10.30   164.80  
 268    0:00    0.000     999.000     49.4     50     3.8      27     4.3   795.90   10.30   164.70  
 268    0:10    0.000     999.000     49.3     50     3.5      24     4.3   795.90   10.30   164.60  
 268    0:20    0.000     999.000     49.2     50     3.8      26     4.3   795.90   10.30   164.70  

Return to Central Sierra Snow Lab graphs page.


Western Regional Climate Center,wrcc@dri.edu